Time,TemperatureF,DewpointF,PressureIn,WindDirection,WindDirectionDegrees,WindSpeedMPH,WindSpeedGustMPH,Humidity,HourlyPrecipIn,Conditions,Clouds,dailyrainin,SolarRadiationWatts/m^2,SoftwareType,DateUTC
2013-02-17 00:00:00,27.7,26.6,29.74,West,272,3.0,9.0,96,-99.99,,,-99.99,0.0,meteohub,2013-02-17 05:00:00,
2013-02-17 00:01:00,27.7,26.6,29.74,West,276,3.0,9.0,96,-99.99,,,-99.99,0.0,meteohub,2013-02-17 05:01:00,
2013-02-17 00:02:00,27.5,26.6,29.74,WSW,256,1.0,9.0,96,-99.99,,,-99.99,0.0,meteohub,2013-02-17 05:02:00,
2013-02-17 00:07:00,27.3,26.4,29.74,West,260,6.0,9.0,96,-99.99,,,-99.99,0.0,meteohub,2013-02-17 05:07:00,
2013-02-17 00:12:00,27.3,26.4,29.74,WNW,293,2.0,9.0,96,-99.99,,,-99.99,0.0,meteohub,2013-02-17 05:12:00,
2013-02-17 00:17:00,27.3,26.4,29.73,WNW,301,3.0,8.0,96,-99.99,,,-99.99,0.0,meteohub,2013-02-17 05:17:00,
2013-02-17 00:22:00,27.3,26.4,29.73,NW,313,3.0,9.0,96,-99.99,,,-99.99,0.0,meteohub,2013-02-17 05:22:00,
2013-02-17 00:27:00,27.3,26.4,29.72,West,269,3.0,9.0,96,-99.99,,,-99.99,0.0,meteohub,2013-02-17 05:27:00,
2013-02-17 00:32:00,27.3,26.4,29.72,WNW,295,1.0,9.0,96,-99.99,,,-99.99,0.0,meteohub,2013-02-17 05:32:00,
2013-02-17 00:37:00,27.3,26.4,29.71,WNW,294,2.0,7.0,96,-99.99,,,-99.99,0.0,meteohub,2013-02-17 05:37:00,
2013-02-17 00:42:00,27.3,26.4,29.70,West,280,2.0,5.0,96,-99.99,,,-99.99,0.0,meteohub,2013-02-17 05:42:00,
2013-02-17 00:47:00,27.1,26.2,29.70,WNW,286,8.0,8.0,96,-99.99,,,-99.99,0.0,meteohub,2013-02-17 05:47:00,
2013-02-17 00:52:00,27.1,26.2,29.69,WNW,284,4.0,8.0,96,-99.99,,,-99.99,0.0,meteohub,2013-02-17 05:52:00,
2013-02-17 00:57:00,27.0,26.1,29.68,NW,322,6.0,11.0,96,-99.99,,,-99.99,0.0,meteohub,2013-02-17 05:57:00,
2013-02-17 01:02:00,27.0,26.1,29.68,WNW,284,2.0,11.0,96,-99.99,,,-99.99,0.0,meteohub,2013-02-17 06:02:00,
2013-02-17 01:07:00,27.0,26.1,29.68,WNW,285,4.0,11.0,96,-99.99,,,-99.99,0.0,meteohub,2013-02-17 06:07:00,
2013-02-17 01:12:00,27.0,26.1,29.67,WNW,286,2.0,7.0,96,-99.99,,,-99.99,0.0,meteohub,2013-02-17 06:12:00,
2013-02-17 01:17:00,27.0,25.7,29.67,West,279,3.0,7.0,95,-99.99,,,-99.99,0.0,meteohub,2013-02-17 06:17:00,
2013-02-17 01:22:00,27.0,25.7,29.68,West,274,1.0,7.0,95,-99.99,,,-99.99,0.0,meteohub,2013-02-17 06:22:00,
2013-02-17 01:27:00,26.8,25.5,29.67,NW,308,1.0,9.0,95,-99.99,,,-99.99,0.0,meteohub,2013-02-17 06:27:00,
2013-02-17 01:32:00,26.8,25.5,29.67,WNW,300,2.0,9.0,95,-99.99,,,-99.99,0.0,meteohub,2013-02-17 06:32:00,
2013-02-17 01:37:00,26.8,25.5,29.66,WNW,286,2.0,9.0,95,-99.99,,,-99.99,0.0,meteohub,2013-02-17 06:37:00,
2013-02-17 01:42:00,26.6,25.3,29.65,West,278,2.0,6.0,95,-99.99,,,-99.99,0.0,meteohub,2013-02-17 06:42:00,
2013-02-17 01:47:00,26.6,25.3,29.65,WNW,300,4.0,10.0,95,-99.99,,,-99.99,0.0,meteohub,2013-02-17 06:47:00,
2013-02-17 01:52:00,26.6,25.3,29.65,West,261,8.0,10.0,95,-99.99,,,-99.99,0.0,meteohub,2013-02-17 06:52:00,
2013-02-17 01:57:00,26.4,25.0,29.64,West,276,2.0,10.0,94,-99.99,,,-99.99,0.0,meteohub,2013-02-17 06:57:00,
2013-02-17 02:02:00,26.2,24.8,29.64,West,263,3.0,10.0,94,-99.99,,,-99.99,0.0,meteohub,2013-02-17 07:02:00,
2013-02-17 02:07:00,26.2,25.0,29.64,West,274,2.0,10.0,95,-99.99,,,-99.99,0.0,meteohub,2013-02-17 07:07:00,
2013-02-17 02:12:00,26.2,25.0,29.65,WNW,288,2.0,10.0,95,-99.99,,,-99.99,0.0,meteohub,2013-02-17 07:12:00,
2013-02-17 02:17:00,26.2,25.0,29.65,WNW,290,2.0,5.0,95,-99.99,,,-99.99,0.0,meteohub,2013-02-17 07:17:00,
2013-02-17 02:22:00,26.2,25.0,29.64,WNW,288,3.0,5.0,95,-99.99,,,-99.99,0.0,meteohub,2013-02-17 07:22:00,
2013-02-17 02:27:00,26.2,25.0,29.64,WSW,248,4.0,5.0,95,-99.99,,,-99.99,0.0,meteohub,2013-02-17 07:27:00,
2013-02-17 02:32:00,26.2,25.0,29.63,WNW,288,5.0,5.0,95,-99.99,,,-99.99,0.0,meteohub,2013-02-17 07:32:00,
2013-02-17 02:37:00,26.2,25.0,29.63,WNW,303,1.0,5.0,95,-99.99,,,-99.99,0.0,meteohub,2013-02-17 07:37:00,
2013-02-17 02:42:00,26.2,25.0,29.62,WNW,284,2.0,7.0,95,-99.99,,,-99.99,0.0,meteohub,2013-02-17 07:42:00,
2013-02-17 02:47:00,26.1,24.6,29.62,West,267,2.0,7.0,94,-99.99,,,-99.99,0.0,meteohub,2013-02-17 07:47:00,
2013-02-17 02:52:00,26.1,24.6,29.61,West,275,4.0,9.0,94,-99.99,,,-99.99,0.0,meteohub,2013-02-17 07:52:00,
2013-02-17 02:57:00,25.9,24.4,29.60,West,263,4.0,9.0,94,-99.99,,,-99.99,0.0,meteohub,2013-02-17 07:57:00,
2013-02-17 03:02:00,25.7,24.4,29.59,West,270,3.0,9.0,95,-99.99,,,-99.99,0.0,meteohub,2013-02-17 08:02:00,
2013-02-17 03:07:00,25.5,24.3,29.59,West,261,6.0,9.0,95,-99.99,,,-99.99,0.0,meteohub,2013-02-17 08:07:00,
2013-02-17 03:12:00,25.3,24.1,29.59,WNW,285,3.0,9.0,95,-99.99,,,-99.99,0.0,meteohub,2013-02-17 08:12:00,
2013-02-17 03:17:00,25.2,23.9,29.59,WSW,257,4.0,7.0,95,-99.99,,,-99.99,0.0,meteohub,2013-02-17 08:17:00,
2013-02-17 03:22:00,25.2,23.9,29.60,WSW,257,5.0,8.0,95,-99.99,,,-99.99,0.0,meteohub,2013-02-17 08:22:00,
2013-02-17 03:27:00,25.0,23.7,29.60,WNW,295,4.0,9.0,95,-99.99,,,-99.99,0.0,meteohub,2013-02-17 08:27:00,
2013-02-17 03:32:00,25.0,24.1,29.60,West,259,4.0,9.0,96,-99.99,,,-99.99,0.0,meteohub,2013-02-17 08:32:00,
2013-02-17 03:37:00,24.8,23.9,29.59,West,264,3.0,9.0,96,-99.99,,,-99.99,0.0,meteohub,2013-02-17 08:37:00,
2013-02-17 03:42:00,24.6,23.4,29.59,WNW,284,4.0,9.0,95,-99.99,,,-99.99,0.0,meteohub,2013-02-17 08:42:00,
2013-02-17 03:47:00,24.6,23.7,29.57,West,265,2.0,9.0,96,-99.99,,,-99.99,0.0,meteohub,2013-02-17 08:47:00,
2013-02-17 03:52:00,24.6,23.7,29.57,West,273,3.0,9.0,96,-99.99,,,-99.99,0.0,meteohub,2013-02-17 08:52:00,
2013-02-17 03:57:00,24.6,23.7,29.55,West,269,3.0,7.0,96,-99.99,,,-99.99,0.0,meteohub,2013-02-17 08:57:00,
2013-02-17 04:02:00,24.4,23.5,29.55,West,268,6.0,7.0,96,-99.99,,,-99.99,0.0,meteohub,2013-02-17 09:02:00,
2013-02-17 04:07:00,24.4,23.5,29.55,West,263,4.0,8.0,96,-99.99,,,-99.99,0.0,meteohub,2013-02-17 09:07:00,
2013-02-17 04:12:00,24.4,23.5,29.55,West,259,4.0,8.0,96,-99.99,,,-99.99,0.0,meteohub,2013-02-17 09:12:00,
2013-02-17 04:17:00,24.3,23.4,29.55,West,275,3.0,8.0,96,-99.99,,,-99.99,0.0,meteohub,2013-02-17 09:17:00,
2013-02-17 04:22:00,24.3,23.4,29.55,WNW,283,2.0,8.0,96,-99.99,,,-99.99,0.0,meteohub,2013-02-17 09:22:00,
2013-02-17 04:27:00,24.3,23.4,29.55,West,277,3.0,8.0,96,-99.99,,,-99.99,0.0,meteohub,2013-02-17 09:27:00,
2013-02-17 04:32:00,24.3,23.4,29.55,West,275,5.0,8.0,96,-99.99,,,-99.99,0.0,meteohub,2013-02-17 09:32:00,
2013-02-17 04:37:00,24.1,22.8,29.55,West,263,3.0,8.0,95,-99.99,,,-99.99,0.0,meteohub,2013-02-17 09:37:00,
2013-02-17 04:42:00,24.1,23.2,29.55,WNW,283,5.0,8.0,96,-99.99,,,-99.99,0.0,meteohub,2013-02-17 09:42:00,
2013-02-17 04:47:00,24.1,23.2,29.54,West,277,5.0,8.0,96,-99.99,,,-99.99,0.0,meteohub,2013-02-17 09:47:00,
2013-02-17 04:52:00,23.9,23.0,29.54,West,273,3.0,8.0,96,-99.99,,,-99.99,0.0,meteohub,2013-02-17 09:52:00,
2013-02-17 04:57:00,24.1,23.2,29.54,West,263,3.0,8.0,96,-99.99,,,-99.99,0.0,meteohub,2013-02-17 09:57:00,
2013-02-17 05:02:00,24.1,23.2,29.54,NW,312,3.0,8.0,96,-99.99,,,-99.99,0.0,meteohub,2013-02-17 10:02:00,
2013-02-17 05:07:00,24.1,23.2,29.52,West,265,4.0,7.0,96,-99.99,,,-99.99,0.0,meteohub,2013-02-17 10:07:00,
2013-02-17 05:12:00,23.9,22.6,29.52,WNW,282,5.0,7.0,95,-99.99,,,-99.99,0.0,meteohub,2013-02-17 10:12:00,
2013-02-17 05:17:00,23.7,22.5,29.52,NW,316,3.0,10.0,95,-99.99,,,-99.99,0.0,meteohub,2013-02-17 10:17:00,
2013-02-17 05:22:00,23.7,22.5,29.50,West,274,4.0,10.0,95,-99.99,,,-99.99,0.0,meteohub,2013-02-17 10:22:00,
2013-02-17 05:27:00,23.7,22.5,29.49,West,277,3.0,9.0,95,-99.99,,,-99.99,0.0,meteohub,2013-02-17 10:27:00,
2013-02-17 05:32:00,23.7,22.5,29.49,West,271,3.0,9.0,95,-99.99,,,-99.99,0.0,meteohub,2013-02-17 10:32:00,
2013-02-17 05:37:00,23.7,22.5,29.49,West,279,4.0,9.0,95,-99.99,,,-99.99,0.0,meteohub,2013-02-17 10:37:00,
2013-02-17 05:42:00,23.9,22.6,29.49,WNW,283,3.0,9.0,95,-99.99,,,-99.99,0.0,meteohub,2013-02-17 10:42:00,
2013-02-17 05:47:00,23.9,22.6,29.48,West,270,4.0,6.0,95,-99.99,,,-99.99,0.0,meteohub,2013-02-17 10:47:00,
2013-02-17 05:52:00,23.7,22.5,29.48,West,266,3.0,12.0,95,-99.99,,,-99.99,0.0,meteohub,2013-02-17 10:52:00,
2013-02-17 05:57:00,23.5,22.3,29.48,West,269,3.0,12.0,95,-99.99,,,-99.99,0.0,meteohub,2013-02-17 10:57:00,
2013-02-17 06:02:00,23.5,22.3,29.47,WNW,290,3.0,12.0,95,-99.99,,,-99.99,0.0,meteohub,2013-02-17 11:02:00,
2013-02-17 06:07:00,23.5,22.3,29.46,WSW,258,4.0,8.0,95,-99.99,,,-99.99,0.0,meteohub,2013-02-17 11:07:00,
2013-02-17 06:12:00,23.4,21.9,29.46,West,265,4.0,8.0,94,-99.99,,,-99.99,0.0,meteohub,2013-02-17 11:12:00,
2013-02-17 06:17:00,23.5,22.3,29.46,WNW,284,3.0,11.0,95,-99.99,,,-99.99,0.0,meteohub,2013-02-17 11:17:00,
2013-02-17 06:22:00,23.4,21.9,29.46,West,269,3.0,11.0,94,-99.99,,,-99.99,0.0,meteohub,2013-02-17 11:22:00,
2013-02-17 06:27:00,23.4,22.1,29.45,West,279,3.0,11.0,95,-99.99,,,-99.99,0.0,meteohub,2013-02-17 11:27:00,
2013-02-17 06:32:00,23.4,22.1,29.45,WSW,257,6.0,9.0,95,-99.99,,,-99.99,0.0,meteohub,2013-02-17 11:32:00,
2013-02-17 06:37:00,23.0,21.6,29.44,NW,316,7.0,14.0,94,-99.99,,,-99.99,0.0,meteohub,2013-02-17 11:37:00,
2013-02-17 06:42:00,23.0,21.6,29.44,West,277,4.0,14.0,94,-99.99,,,-99.99,0.0,meteohub,2013-02-17 11:42:00,
2013-02-17 06:47:00,23.2,21.7,29.43,West,280,6.0,14.0,94,-99.99,,,-99.99,0.0,meteohub,2013-02-17 11:47:00,
2013-02-17 06:52:00,23.2,21.7,29.42,West,281,4.0,13.0,94,-99.99,,,-99.99,0.0,meteohub,2013-02-17 11:52:00,
2013-02-17 06:57:00,23.2,21.7,29.42,WNW,291,4.0,13.0,94,-99.99,,,-99.99,0.0,meteohub,2013-02-17 11:57:00,
2013-02-17 07:02:00,23.2,21.7,29.41,West,280,3.0,11.0,94,-99.99,,,-99.99,0.0,meteohub,2013-02-17 12:02:00,
2013-02-17 07:07:00,23.2,21.7,29.41,West,261,5.0,11.0,94,-99.99,,,-99.99,0.0,meteohub,2013-02-17 12:07:00,
2013-02-17 07:12:00,23.2,21.7,29.40,West,280,6.0,12.0,94,-99.99,,,-99.99,5.0,meteohub,2013-02-17 12:12:00,
2013-02-17 07:17:00,23.2,21.7,29.40,West,279,5.0,12.0,94,-99.99,,,-99.99,5.0,meteohub,2013-02-17 12:17:00,
2013-02-17 07:22:00,23.2,21.7,29.38,WSW,256,5.0,12.0,94,-99.99,,,-99.99,7.0,meteohub,2013-02-17 12:22:00,
2013-02-17 07:27:00,23.0,21.6,29.39,WNW,293,2.0,11.0,94,-99.99,,,-99.99,5.0,meteohub,2013-02-17 12:27:00,
2013-02-17 07:32:00,23.2,21.7,29.38,WNW,284,3.0,14.0,94,-99.99,,,-99.99,7.0,meteohub,2013-02-17 12:32:00,
2013-02-17 07:37:00,23.4,21.9,29.38,WNW,283,4.0,14.0,94,-99.99,,,-99.99,9.0,meteohub,2013-02-17 12:37:00,
2013-02-17 07:42:00,23.4,21.9,29.38,WNW,286,4.0,14.0,94,-99.99,,,-99.99,11.0,meteohub,2013-02-17 12:42:00,
2013-02-17 07:47:00,23.4,21.9,29.37,West,267,6.0,10.0,94,-99.99,,,-99.99,9.0,meteohub,2013-02-17 12:47:00,
2013-02-17 07:52:00,23.4,21.9,29.36,West,271,5.0,11.0,94,-99.99,,,-99.99,9.0,meteohub,2013-02-17 12:52:00,
2013-02-17 07:57:00,23.4,21.9,29.36,West,266,5.0,11.0,94,-99.99,,,-99.99,12.0,meteohub,2013-02-17 12:57:00,
2013-02-17 08:02:00,23.4,21.9,29.36,West,281,5.0,11.0,94,-99.99,,,-99.99,11.0,meteohub,2013-02-17 13:02:00,
2013-02-17 08:07:00,23.4,21.9,29.35,West,280,5.0,11.0,94,-99.99,,,-99.99,14.0,meteohub,2013-02-17 13:07:00,
2013-02-17 08:12:00,23.5,22.1,29.34,WNW,282,5.0,12.0,94,-99.99,,,-99.99,16.0,meteohub,2013-02-17 13:12:00,
2013-02-17 08:18:00,23.4,21.9,29.33,West,262,5.0,12.0,94,-99.99,,,-99.99,18.0,meteohub,2013-02-17 13:18:00,
2013-02-17 08:23:00,23.5,22.1,29.32,WNW,293,5.0,12.0,94,-99.99,,,-99.99,18.0,meteohub,2013-02-17 13:23:00,
2013-02-17 08:28:00,23.5,22.1,29.31,WSW,251,4.0,9.0,94,-99.99,,,-99.99,21.0,meteohub,2013-02-17 13:28:00,
2013-02-17 08:33:00,23.7,22.3,29.31,West,278,2.0,11.0,94,-99.99,,,-99.99,25.0,meteohub,2013-02-17 13:33:00,
2013-02-17 08:38:00,23.5,22.1,29.30,West,274,2.0,11.0,94,-99.99,,,-99.99,26.0,meteohub,2013-02-17 13:38:00,
2013-02-17 08:43:00,23.5,22.1,29.29,WSW,258,5.0,11.0,94,-99.99,,,-99.99,28.0,meteohub,2013-02-17 13:43:00,
2013-02-17 08:48:00,23.4,21.9,29.29,West,272,5.0,10.0,94,-99.99,,,-99.99,26.0,meteohub,2013-02-17 13:48:00,
2013-02-17 08:53:00,23.5,22.3,29.29,WSW,254,6.0,10.0,95,-99.99,,,-99.99,21.0,meteohub,2013-02-17 13:53:00,
2013-02-17 08:58:00,23.4,21.9,29.28,WNW,298,3.0,13.0,94,-99.99,,,-99.99,21.0,meteohub,2013-02-17 13:58:00,
2013-02-17 09:03:00,23.5,22.3,29.28,West,279,4.0,13.0,95,-99.99,,,-99.99,21.0,meteohub,2013-02-17 14:03:00,
2013-02-17 09:08:00,23.7,22.5,29.27,WNW,284,5.0,13.0,95,-99.99,,,-99.99,21.0,meteohub,2013-02-17 14:08:00,
2013-02-17 09:13:00,23.7,22.5,29.26,WNW,288,2.0,11.0,95,-99.99,,,-99.99,25.0,meteohub,2013-02-17 14:13:00,
2013-02-17 09:18:00,23.7,22.3,29.26,WNW,284,3.0,11.0,94,-99.99,,,-99.99,23.0,meteohub,2013-02-17 14:18:00,
2013-02-17 09:23:00,24.1,22.8,29.26,West,278,5.0,11.0,95,-99.99,,,-99.99,21.0,meteohub,2013-02-17 14:23:00,
2013-02-17 09:28:00,23.9,22.5,29.25,West,260,5.0,15.0,94,-99.99,,,-99.99,18.0,meteohub,2013-02-17 14:28:00,
2013-02-17 09:33:00,23.7,22.3,29.25,West,267,8.0,15.0,94,-99.99,,,-99.99,19.0,meteohub,2013-02-17 14:33:00,
2013-02-17 09:38:00,23.7,22.3,29.24,West,259,4.0,15.0,94,-99.99,,,-99.99,25.0,meteohub,2013-02-17 14:38:00,
2013-02-17 09:43:00,23.7,22.3,29.23,West,274,5.0,11.0,94,-99.99,,,-99.99,23.0,meteohub,2013-02-17 14:43:00,
2013-02-17 09:48:00,23.7,22.3,29.23,WSW,252,6.0,11.0,94,-99.99,,,-99.99,21.0,meteohub,2013-02-17 14:48:00,
2013-02-17 09:53:00,24.1,22.6,29.23,WSW,240,7.0,13.0,94,-99.99,,,-99.99,28.0,meteohub,2013-02-17 14:53:00,
2013-02-17 09:58:00,23.7,21.9,29.22,West,278,6.0,13.0,93,-99.99,,,-99.99,35.0,meteohub,2013-02-17 14:58:00,
2013-02-17 10:03:00,24.3,22.8,29.21,West,268,12.0,15.0,94,-99.99,,,-99.99,32.0,meteohub,2013-02-17 15:03:00,
2013-02-17 10:08:00,24.1,22.3,29.21,WNW,287,7.0,15.0,93,-99.99,,,-99.99,30.0,meteohub,2013-02-17 15:08:00,
2013-02-17 10:13:00,24.1,22.6,29.20,WSW,247,6.0,16.0,94,-99.99,,,-99.99,26.0,meteohub,2013-02-17 15:13:00,
2013-02-17 10:18:00,24.1,22.6,29.20,West,263,7.0,16.0,94,-99.99,,,-99.99,26.0,meteohub,2013-02-17 15:18:00,
2013-02-17 10:23:00,24.1,22.6,29.19,WSW,255,7.0,16.0,94,-99.99,,,-99.99,25.0,meteohub,2013-02-17 15:23:00,
2013-02-17 10:28:00,24.1,22.6,29.18,WSW,257,6.0,13.0,94,-99.99,,,-99.99,28.0,meteohub,2013-02-17 15:28:00,
2013-02-17 10:34:00,24.1,22.6,29.18,West,265,9.0,13.0,94,-99.99,,,-99.99,30.0,meteohub,2013-02-17 15:34:00,
2013-02-17 10:39:00,24.1,22.6,29.18,West,268,7.0,13.0,94,-99.99,,,-99.99,33.0,meteohub,2013-02-17 15:39:00,
2013-02-17 10:44:00,24.1,22.6,29.16,WSW,241,9.0,14.0,94,-99.99,,,-99.99,46.0,meteohub,2013-02-17 15:44:00,
2013-02-17 10:49:00,24.3,22.8,29.16,West,271,11.0,26.0,94,-99.99,,,-99.99,35.0,meteohub,2013-02-17 15:49:00,
2013-02-17 10:54:00,24.3,22.5,29.15,West,259,9.0,26.0,93,-99.99,,,-99.99,33.0,meteohub,2013-02-17 15:54:00,
2013-02-17 10:59:00,24.4,23.0,29.15,WNW,299,8.0,26.0,94,-99.99,,,-99.99,40.0,meteohub,2013-02-17 15:59:00,
2013-02-17 11:04:00,24.4,23.0,29.14,West,279,6.0,16.0,94,-99.99,,,-99.99,47.0,meteohub,2013-02-17 16:04:00,
2013-02-17 11:09:00,24.3,22.5,29.13,West,277,10.0,16.0,93,-99.99,,,-99.99,47.0,meteohub,2013-02-17 16:09:00,
2013-02-17 11:14:00,24.3,22.5,29.11,WSW,240,11.0,21.0,93,-99.99,,,-99.99,46.0,meteohub,2013-02-17 16:14:00,
2013-02-17 11:19:00,24.3,22.5,29.10,West,277,10.0,24.0,93,-99.99,,,-99.99,51.0,meteohub,2013-02-17 16:19:00,
2013-02-17 11:24:00,24.4,22.6,29.10,West,265,8.0,24.0,93,-99.99,,,-99.99,49.0,meteohub,2013-02-17 16:24:00,
2013-02-17 11:29:00,24.6,23.2,29.08,WNW,292,9.0,24.0,94,-99.99,,,-99.99,49.0,meteohub,2013-02-17 16:29:00,
2013-02-17 11:34:00,24.6,23.2,29.07,West,259,13.0,23.0,94,-99.99,,,-99.99,47.0,meteohub,2013-02-17 16:34:00,
2013-02-17 11:39:00,24.6,23.2,29.07,West,271,10.0,23.0,94,-99.99,,,-99.99,46.0,meteohub,2013-02-17 16:39:00,
2013-02-17 11:44:00,25.0,23.5,29.06,West,270,15.0,23.0,94,-99.99,,,-99.99,47.0,meteohub,2013-02-17 16:44:00,
2013-02-17 11:49:00,25.2,23.7,29.06,WNW,283,11.0,24.0,94,-99.99,,,-99.99,47.0,meteohub,2013-02-17 16:49:00,
2013-02-17 11:54:00,25.0,23.5,29.05,West,263,14.0,24.0,94,-99.99,,,-99.99,44.0,meteohub,2013-02-17 16:54:00,
2013-02-17 11:59:00,24.6,23.2,29.05,WSW,253,12.0,24.0,94,-99.99,,,-99.99,42.0,meteohub,2013-02-17 16:59:00,
2013-02-17 12:04:00,24.4,23.0,29.05,West,259,11.0,18.0,94,-99.99,,,-99.99,37.0,meteohub,2013-02-17 17:04:00,
2013-02-17 12:09:00,24.4,23.0,29.05,West,280,10.0,22.0,94,-99.99,,,-99.99,28.0,meteohub,2013-02-17 17:09:00,
2013-02-17 12:14:00,24.4,23.0,29.04,West,259,11.0,24.0,94,-99.99,,,-99.99,28.0,meteohub,2013-02-17 17:14:00,
2013-02-17 12:19:00,24.3,22.8,29.04,West,271,15.0,24.0,94,-99.99,,,-99.99,32.0,meteohub,2013-02-17 17:19:00,
2013-02-17 12:24:00,24.3,22.8,29.03,WSW,257,8.0,24.0,94,-99.99,,,-99.99,33.0,meteohub,2013-02-17 17:24:00,
2013-02-17 12:29:00,24.3,22.5,29.03,West,268,11.0,20.0,93,-99.99,,,-99.99,37.0,meteohub,2013-02-17 17:29:00,
2013-02-17 12:34:00,24.3,22.8,29.03,North,0,12.0,20.0,94,-99.99,,,-99.99,35.0,meteohub,2013-02-17 17:34:00,
2013-02-17 12:39:00,24.1,22.6,29.02,West,267,9.0,20.0,94,-99.99,,,-99.99,37.0,meteohub,2013-02-17 17:39:00,
2013-02-17 12:44:00,24.3,22.8,29.02,West,268,14.0,22.0,94,-99.99,,,-99.99,37.0,meteohub,2013-02-17 17:44:00,
2013-02-17 12:50:00,24.3,22.8,29.02,West,269,12.0,22.0,94,-99.99,,,-99.99,35.0,meteohub,2013-02-17 17:50:00,
2013-02-17 12:55:00,24.3,22.8,29.01,West,271,11.0,22.0,94,-99.99,,,-99.99,35.0,meteohub,2013-02-17 17:55:00,
2013-02-17 13:00:00,24.3,22.8,29.02,West,267,10.0,23.0,94,-99.99,,,-99.99,33.0,meteohub,2013-02-17 18:00:00,
2013-02-17 13:05:00,24.3,22.8,29.01,WSW,253,13.0,23.0,94,-99.99,,,-99.99,32.0,meteohub,2013-02-17 18:05:00,
2013-02-17 13:10:00,24.3,22.8,29.01,West,270,8.0,22.0,94,-99.99,,,-99.99,32.0,meteohub,2013-02-17 18:10:00,
2013-02-17 13:15:00,24.4,23.0,29.01,WSW,244,12.0,22.0,94,-99.99,,,-99.99,30.0,meteohub,2013-02-17 18:15:00,
2013-02-17 13:20:00,24.3,22.5,29.00,WSW,242,11.0,22.0,93,-99.99,,,-99.99,32.0,meteohub,2013-02-17 18:20:00,
2013-02-17 13:25:00,24.4,23.0,29.00,WSW,255,9.0,20.0,94,-99.99,,,-99.99,32.0,meteohub,2013-02-17 18:25:00,
2013-02-17 13:30:00,24.6,23.2,29.00,West,264,8.0,21.0,94,-99.99,,,-99.99,30.0,meteohub,2013-02-17 18:30:00,
2013-02-17 13:35:00,24.8,23.4,29.00,West,267,9.0,21.0,94,-99.99,,,-99.99,30.0,meteohub,2013-02-17 18:35:00,
2013-02-17 13:40:00,24.8,23.4,29.00,WNW,296,11.0,21.0,94,-99.99,,,-99.99,30.0,meteohub,2013-02-17 18:40:00,
2013-02-17 13:45:00,24.8,23.4,28.99,WNW,283,18.0,19.0,94,-99.99,,,-99.99,30.0,meteohub,2013-02-17 18:45:00,
2013-02-17 13:50:00,24.8,23.4,28.99,WSW,251,14.0,19.0,94,-99.99,,,-99.99,30.0,meteohub,2013-02-17 18:50:00,
2013-02-17 13:55:00,25.0,23.5,28.99,West,271,13.0,20.0,94,-99.99,,,-99.99,28.0,meteohub,2013-02-17 18:55:00,
2013-02-17 14:00:00,25.0,23.5,28.99,WSW,256,7.0,22.0,94,-99.99,,,-99.99,28.0,meteohub,2013-02-17 19:00:00,
2013-02-17 14:05:00,24.6,23.2,28.99,WSW,238,12.0,22.0,94,-99.99,,,-99.99,28.0,meteohub,2013-02-17 19:05:00,
2013-02-17 14:10:00,24.4,23.0,28.99,West,266,11.0,20.0,94,-99.99,,,-99.99,26.0,meteohub,2013-02-17 19:10:00,
2013-02-17 14:15:00,24.4,23.0,28.99,West,268,9.0,19.0,94,-99.99,,,-99.99,26.0,meteohub,2013-02-17 19:15:00,
2013-02-17 14:20:00,24.3,22.8,28.99,WSW,249,5.0,18.0,94,-99.99,,,-99.99,25.0,meteohub,2013-02-17 19:20:00,
2013-02-17 14:25:00,24.3,22.8,28.99,WSW,257,9.0,19.0,94,-99.99,,,-99.99,25.0,meteohub,2013-02-17 19:25:00,
2013-02-17 14:30:00,24.1,22.6,28.99,West,281,8.0,19.0,94,-99.99,,,-99.99,25.0,meteohub,2013-02-17 19:30:00,
2013-02-17 14:35:00,23.7,22.3,28.99,WSW,251,8.0,16.0,94,-99.99,,,-99.99,23.0,meteohub,2013-02-17 19:35:00,
2013-02-17 14:40:00,23.5,22.1,28.99,West,275,10.0,17.0,94,-99.99,,,-99.99,21.0,meteohub,2013-02-17 19:40:00,
2013-02-17 14:45:00,23.5,22.1,28.99,West,268,11.0,17.0,94,-99.99,,,-99.99,19.0,meteohub,2013-02-17 19:45:00,
2013-02-17 14:50:00,23.5,22.1,28.99,West,274,11.0,16.0,94,-99.99,,,-99.99,18.0,meteohub,2013-02-17 19:50:00,
2013-02-17 14:55:00,23.4,21.9,28.99,WNW,291,18.0,18.0,94,-99.99,,,-99.99,16.0,meteohub,2013-02-17 19:55:00,
2013-02-17 15:00:00,23.4,21.9,28.99,WSW,256,14.0,18.0,94,-99.99,,,-99.99,16.0,meteohub,2013-02-17 20:00:00,
2013-02-17 15:05:00,23.4,21.9,28.99,WSW,246,13.0,18.0,94,-99.99,,,-99.99,16.0,meteohub,2013-02-17 20:05:00,
2013-02-17 15:10:00,23.2,21.7,29.00,West,272,12.0,18.0,94,-99.99,,,-99.99,16.0,meteohub,2013-02-17 20:10:00,
2013-02-17 15:15:00,23.2,21.7,29.00,WSW,253,11.0,22.0,94,-99.99,,,-99.99,16.0,meteohub,2013-02-17 20:15:00,
2013-02-17 15:20:00,23.2,21.7,29.00,WSW,252,11.0,22.0,94,-99.99,,,-99.99,16.0,meteohub,2013-02-17 20:20:00,
2013-02-17 15:25:00,23.2,21.7,29.00,West,265,13.0,22.0,94,-99.99,,,-99.99,16.0,meteohub,2013-02-17 20:25:00,
2013-02-17 15:30:00,23.2,21.7,29.00,West,262,14.0,22.0,94,-99.99,,,-99.99,16.0,meteohub,2013-02-17 20:30:00,
2013-02-17 15:35:00,23.2,21.7,29.00,WNW,282,12.0,22.0,94,-99.99,,,-99.99,16.0,meteohub,2013-02-17 20:35:00,
2013-02-17 15:40:00,23.0,21.6,29.01,West,269,15.0,27.0,94,-99.99,,,-99.99,14.0,meteohub,2013-02-17 20:40:00,
2013-02-17 15:45:00,23.2,21.7,29.00,West,271,10.0,27.0,94,-99.99,,,-99.99,12.0,meteohub,2013-02-17 20:45:00,
2013-02-17 15:50:00,23.2,21.7,29.00,West,260,10.0,27.0,94,-99.99,,,-99.99,14.0,meteohub,2013-02-17 20:50:00,
2013-02-17 15:55:00,23.0,21.6,29.01,West,272,12.0,21.0,94,-99.99,,,-99.99,14.0,meteohub,2013-02-17 20:55:00,
2013-02-17 16:00:00,22.6,21.2,29.00,WSW,257,11.0,22.0,94,-99.99,,,-99.99,14.0,meteohub,2013-02-17 21:00:00,
2013-02-17 16:05:00,22.6,21.2,29.01,WSW,257,14.0,23.0,94,-99.99,,,-99.99,12.0,meteohub,2013-02-17 21:05:00,
2013-02-17 16:10:00,22.5,20.7,29.01,WSW,250,13.0,23.0,93,-99.99,,,-99.99,11.0,meteohub,2013-02-17 21:10:00,
2013-02-17 16:15:00,22.3,20.8,29.01,WSW,253,13.0,26.0,94,-99.99,,,-99.99,9.0,meteohub,2013-02-17 21:15:00,
2013-02-17 16:20:00,22.1,20.3,29.01,WSW,246,17.0,30.0,93,-99.99,,,-99.99,7.0,meteohub,2013-02-17 21:20:00,
2013-02-17 16:25:00,21.9,20.1,29.01,West,268,12.0,30.0,93,-99.99,,,-99.99,7.0,meteohub,2013-02-17 21:25:00,
2013-02-17 16:30:00,21.9,20.1,29.01,WSW,250,16.0,30.0,93,-99.99,,,-99.99,5.0,meteohub,2013-02-17 21:30:00,
2013-02-17 16:35:00,21.9,20.1,29.02,West,272,13.0,25.0,93,-99.99,,,-99.99,5.0,meteohub,2013-02-17 21:35:00,
2013-02-17 16:40:00,21.9,20.1,29.02,West,262,21.0,25.0,93,-99.99,,,-99.99,5.0,meteohub,2013-02-17 21:40:00,
2013-02-17 16:45:00,21.9,20.1,29.02,WSW,250,9.0,27.0,93,-99.99,,,-99.99,5.0,meteohub,2013-02-17 21:45:00,
2013-02-17 16:50:00,21.9,20.1,29.02,SW,233,15.0,33.0,93,-99.99,,,-99.99,0.0,meteohub,2013-02-17 21:50:00,
2013-02-17 16:55:00,21.9,20.1,29.02,WSW,246,11.0,33.0,93,-99.99,,,-99.99,0.0,meteohub,2013-02-17 21:55:00,
2013-02-17 17:00:00,21.7,20.1,29.03,WNW,287,12.0,33.0,93,-99.99,,,-99.99,0.0,meteohub,2013-02-17 22:00:00,
2013-02-17 17:05:00,21.9,20.1,29.03,WSW,248,10.0,28.0,93,-99.99,,,-99.99,0.0,meteohub,2013-02-17 22:05:00,
2013-02-17 17:10:00,21.9,20.1,29.03,West,260,14.0,28.0,93,-99.99,,,-99.99,0.0,meteohub,2013-02-17 22:10:00,
2013-02-17 17:15:00,22.3,20.5,29.03,WSW,239,17.0,33.0,93,-99.99,,,-99.99,0.0,meteohub,2013-02-17 22:15:00,
2013-02-17 17:20:00,22.5,20.7,29.04,West,262,16.0,33.0,93,-99.99,,,-99.99,0.0,meteohub,2013-02-17 22:20:00,
2013-02-17 17:25:00,22.3,20.5,29.04,West,259,14.0,33.0,93,-99.99,,,-99.99,0.0,meteohub,2013-02-17 22:25:00,
2013-02-17 17:30:00,22.5,20.7,29.04,WSW,254,13.0,26.0,93,-99.99,,,-99.99,0.0,meteohub,2013-02-17 22:30:00,
2013-02-17 17:35:00,22.5,20.7,29.05,West,268,16.0,26.0,93,-99.99,,,-99.99,0.0,meteohub,2013-02-17 22:35:00,
2013-02-17 17:40:00,22.6,20.8,29.05,WSW,240,17.0,26.0,93,-99.99,,,-99.99,0.0,meteohub,2013-02-17 22:40:00,
2013-02-17 17:45:00,22.6,20.7,29.05,WSW,250,14.0,26.0,92,-99.99,,,-99.99,0.0,meteohub,2013-02-17 22:45:00,
2013-02-17 17:50:00,23.0,21.2,29.05,WSW,245,14.0,27.0,93,-99.99,,,-99.99,0.0,meteohub,2013-02-17 22:50:00,
2013-02-17 17:56:00,23.2,21.2,29.05,West,266,14.0,27.0,92,-99.99,,,-99.99,0.0,meteohub,2013-02-17 22:56:00,
2013-02-17 18:01:00,23.2,21.2,29.06,WSW,250,9.0,27.0,92,-99.99,,,-99.99,0.0,meteohub,2013-02-17 23:01:00,
2013-02-17 18:06:00,23.0,21.0,29.06,West,274,14.0,27.0,92,-99.99,,,-99.99,0.0,meteohub,2013-02-17 23:06:00,
2013-02-17 18:11:00,22.8,20.8,29.06,WSW,252,20.0,26.0,92,-99.99,,,-99.99,0.0,meteohub,2013-02-17 23:11:00,
2013-02-17 18:16:00,22.6,20.7,29.06,West,268,11.0,23.0,92,-99.99,,,-99.99,0.0,meteohub,2013-02-17 23:16:00,
2013-02-17 18:21:00,22.5,20.5,29.07,WSW,238,14.0,25.0,92,-99.99,,,-99.99,0.0,meteohub,2013-02-17 23:21:00,
2013-02-17 18:26:00,22.3,20.5,29.07,WSW,241,12.0,25.0,93,-99.99,,,-99.99,0.0,meteohub,2013-02-17 23:26:00,
2013-02-17 18:31:00,22.1,20.3,29.07,SW,232,11.0,25.0,93,-99.99,,,-99.99,0.0,meteohub,2013-02-17 23:31:00,
2013-02-17 18:36:00,21.9,19.9,29.08,West,263,15.0,26.0,92,-99.99,,,-99.99,0.0,meteohub,2013-02-17 23:36:00,
2013-02-17 18:41:00,21.7,20.1,29.08,West,272,18.0,26.0,93,-99.99,,,-99.99,0.0,meteohub,2013-02-17 23:41:00,
2013-02-17 18:46:00,21.6,19.9,29.08,West,271,17.0,31.0,93,-99.99,,,-99.99,0.0,meteohub,2013-02-17 23:46:00,
2013-02-17 18:51:00,21.4,19.8,29.08,West,269,13.0,31.0,93,-99.99,,,-99.99,0.0,meteohub,2013-02-17 23:51:00,
2013-02-17 18:56:00,21.4,19.8,29.09,WSW,255,13.0,26.0,93,-99.99,,,-99.99,0.0,meteohub,2013-02-17 23:56:00,
2013-02-17 19:01:00,21.4,19.8,29.09,WSW,254,15.0,29.0,93,-99.99,,,-99.99,0.0,meteohub,2013-02-18 00:01:00,
2013-02-17 19:06:00,21.2,19.6,29.09,West,259,18.0,29.0,93,-99.99,,,-99.99,0.0,meteohub,2013-02-18 00:06:00,
2013-02-17 19:11:00,21.2,19.2,29.10,WSW,250,12.0,29.0,92,-99.99,,,-99.99,0.0,meteohub,2013-02-18 00:11:00,
2013-02-17 19:16:00,21.6,19.9,29.10,West,259,12.0,31.0,93,-99.99,,,-99.99,0.0,meteohub,2013-02-18 00:16:00,
2013-02-17 19:21:00,21.6,19.6,29.10,West,263,14.0,31.0,92,-99.99,,,-99.99,0.0,meteohub,2013-02-18 00:21:00,
2013-02-17 19:26:00,21.4,19.4,29.11,West,277,11.0,31.0,92,-99.99,,,-99.99,0.0,meteohub,2013-02-18 00:26:00,
2013-02-17 19:31:00,21.4,19.2,29.11,WSW,251,19.0,24.0,91,-99.99,,,-99.99,0.0,meteohub,2013-02-18 00:31:00,
2013-02-17 19:36:00,21.4,19.2,29.11,West,261,11.0,24.0,91,-99.99,,,-99.99,0.0,meteohub,2013-02-18 00:36:00,
2013-02-17 19:41:00,21.4,18.9,29.11,WSW,241,14.0,24.0,90,-99.99,,,-99.99,0.0,meteohub,2013-02-18 00:41:00,
2013-02-17 19:46:00,21.4,18.9,29.12,West,259,17.0,24.0,90,-99.99,,,-99.99,0.0,meteohub,2013-02-18 00:46:00,
2013-02-17 19:51:00,21.2,18.5,29.13,West,264,13.0,22.0,89,-99.99,,,-99.99,0.0,meteohub,2013-02-18 00:51:00,
2013-02-17 19:56:00,21.2,18.1,29.13,West,270,11.0,24.0,88,-99.99,,,-99.99,0.0,meteohub,2013-02-18 00:56:00,
2013-02-17 20:01:00,21.4,18.3,29.13,West,273,15.0,24.0,88,-99.99,,,-99.99,0.0,meteohub,2013-02-18 01:01:00,
2013-02-17 20:06:00,21.4,18.1,29.13,WSW,254,17.0,24.0,87,-99.99,,,-99.99,0.0,meteohub,2013-02-18 01:06:00,
2013-02-17 20:11:00,21.4,17.8,29.13,WSW,257,10.0,26.0,86,-99.99,,,-99.99,0.0,meteohub,2013-02-18 01:11:00,
2013-02-17 20:16:00,21.4,17.2,29.14,WSW,254,13.0,27.0,84,-99.99,,,-99.99,0.0,meteohub,2013-02-18 01:16:00,
2013-02-17 20:21:00,21.6,16.9,29.14,West,263,12.0,27.0,82,-99.99,,,-99.99,0.0,meteohub,2013-02-18 01:21:00,
2013-02-17 20:26:00,21.6,16.7,29.15,West,260,14.0,27.0,81,-99.99,,,-99.99,0.0,meteohub,2013-02-18 01:26:00,
2013-02-17 20:31:00,21.6,16.3,29.16,West,259,11.0,26.0,80,-99.99,,,-99.99,0.0,meteohub,2013-02-18 01:31:00,
2013-02-17 20:36:00,21.7,16.5,29.16,WSW,254,16.0,27.0,80,-99.99,,,-99.99,0.0,meteohub,2013-02-18 01:36:00,
2013-02-17 20:41:00,21.7,16.0,29.16,West,264,10.0,27.0,78,-99.99,,,-99.99,0.0,meteohub,2013-02-18 01:41:00,
2013-02-17 20:47:00,21.7,16.0,29.16,WSW,242,13.0,27.0,78,-99.99,,,-99.99,0.0,meteohub,2013-02-18 01:47:00,
2013-02-17 20:52:00,21.9,16.3,29.16,WSW,253,13.0,23.0,79,-99.99,,,-99.99,0.0,meteohub,2013-02-18 01:52:00,
2013-02-17 20:57:00,21.7,15.3,29.16,SW,219,11.0,26.0,76,-99.99,,,-99.99,0.0,meteohub,2013-02-18 01:57:00,
2013-02-17 21:02:00,21.9,16.2,29.17,WSW,255,12.0,26.0,78,-99.99,,,-99.99,0.0,meteohub,2013-02-18 02:02:00,
2013-02-17 21:07:00,21.9,15.8,29.17,WSW,257,18.0,25.0,77,-99.99,,,-99.99,0.0,meteohub,2013-02-18 02:07:00,
2013-02-17 21:12:00,21.7,15.6,29.16,WSW,256,18.0,26.0,77,-99.99,,,-99.99,0.0,meteohub,2013-02-18 02:12:00,
2013-02-17 21:17:00,21.7,15.6,29.18,West,265,9.0,26.0,77,-99.99,,,-99.99,0.0,meteohub,2013-02-18 02:17:00,
2013-02-17 21:22:00,21.9,15.8,29.18,WSW,255,14.0,26.0,77,-99.99,,,-99.99,0.0,meteohub,2013-02-18 02:22:00,
2013-02-17 21:27:00,21.9,15.3,29.18,WSW,255,18.0,26.0,75,-99.99,,,-99.99,0.0,meteohub,2013-02-18 02:27:00,
2013-02-17 21:32:00,21.9,15.4,29.18,WSW,253,12.0,26.0,76,-99.99,,,-99.99,0.0,meteohub,2013-02-18 02:32:00,
2013-02-17 21:37:00,21.9,15.4,29.18,West,266,15.0,24.0,76,-99.99,,,-99.99,0.0,meteohub,2013-02-18 02:37:00,
2013-02-17 21:42:00,21.7,14.4,29.18,WSW,258,14.0,26.0,73,-99.99,,,-99.99,0.0,meteohub,2013-02-18 02:42:00,
2013-02-17 21:47:00,21.7,15.3,29.18,WSW,256,15.0,28.0,76,-99.99,,,-99.99,0.0,meteohub,2013-02-18 02:47:00,
2013-02-17 21:52:00,21.7,15.1,29.18,West,263,13.0,28.0,75,-99.99,,,-99.99,0.0,meteohub,2013-02-18 02:52:00,
2013-02-17 21:57:00,21.7,15.1,29.19,West,259,11.0,28.0,75,-99.99,,,-99.99,0.0,meteohub,2013-02-18 02:57:00,
2013-02-17 22:02:00,21.6,14.9,29.19,WSW,250,16.0,25.0,75,-99.99,,,-99.99,0.0,meteohub,2013-02-18 03:02:00,
2013-02-17 22:07:00,21.6,15.3,29.19,West,263,13.0,23.0,76,-99.99,,,-99.99,0.0,meteohub,2013-02-18 03:07:00,
2013-02-17 22:12:00,21.4,14.7,29.20,WSW,254,13.0,23.0,75,-99.99,,,-99.99,0.0,meteohub,2013-02-18 03:12:00,
2013-02-17 22:17:00,21.4,15.1,29.20,West,263,16.0,20.0,76,-99.99,,,-99.99,0.0,meteohub,2013-02-18 03:17:00,
2013-02-17 22:22:00,21.4,15.3,29.21,West,265,21.0,28.0,77,-99.99,,,-99.99,0.0,meteohub,2013-02-18 03:22:00,
2013-02-17 22:27:00,21.2,15.1,29.21,West,260,12.0,28.0,77,-99.99,,,-99.99,0.0,meteohub,2013-02-18 03:27:00,
2013-02-17 22:32:00,21.4,15.3,29.22,WNW,284,9.0,28.0,77,-99.99,,,-99.99,0.0,meteohub,2013-02-18 03:32:00,
2013-02-17 22:37:00,21.2,15.1,29.22,WSW,258,15.0,25.0,77,-99.99,,,-99.99,0.0,meteohub,2013-02-18 03:37:00,
2013-02-17 22:42:00,21.2,15.4,29.23,WSW,252,10.0,25.0,78,-99.99,,,-99.99,0.0,meteohub,2013-02-18 03:42:00,
2013-02-17 22:47:00,21.0,14.9,29.23,WSW,254,11.0,23.0,77,-99.99,,,-99.99,0.0,meteohub,2013-02-18 03:47:00,
2013-02-17 22:52:00,20.8,14.7,29.23,WSW,254,12.0,21.0,77,-99.99,,,-99.99,0.0,meteohub,2013-02-18 03:52:00,
2013-02-17 22:57:00,21.0,15.8,29.24,West,261,11.0,26.0,80,-99.99,,,-99.99,0.0,meteohub,2013-02-18 03:57:00,
2013-02-17 23:02:00,20.8,15.4,29.24,WSW,257,10.0,26.0,79,-99.99,,,-99.99,0.0,meteohub,2013-02-18 04:02:00,
2013-02-17 23:07:00,20.8,15.4,29.24,WSW,242,5.0,26.0,79,-99.99,,,-99.99,0.0,meteohub,2013-02-18 04:07:00,
2013-02-17 23:12:00,20.5,15.1,29.25,SW,232,8.0,22.0,79,-99.99,,,-99.99,0.0,meteohub,2013-02-18 04:12:00,
2013-02-17 23:17:00,20.3,15.1,29.25,WSW,257,8.0,19.0,80,-99.99,,,-99.99,0.0,meteohub,2013-02-18 04:17:00,
2013-02-17 23:22:00,20.3,15.4,29.25,West,279,7.0,21.0,81,-99.99,,,-99.99,0.0,meteohub,2013-02-18 04:22:00,
2013-02-17 23:27:00,20.1,15.3,29.25,West,261,9.0,21.0,81,-99.99,,,-99.99,0.0,meteohub,2013-02-18 04:27:00,
2013-02-17 23:32:00,19.9,15.3,29.26,WSW,250,12.0,19.0,82,-99.99,,,-99.99,0.0,meteohub,2013-02-18 04:32:00,
2013-02-17 23:37:00,19.8,15.4,29.26,WSW,253,10.0,19.0,83,-99.99,,,-99.99,0.0,meteohub,2013-02-18 04:37:00,
2013-02-17 23:42:00,19.8,15.8,29.26,WSW,241,7.0,19.0,84,-99.99,,,-99.99,0.0,meteohub,2013-02-18 04:42:00,
2013-02-17 23:47:00,19.8,15.8,29.27,WSW,253,13.0,17.0,84,-99.99,,,-99.99,0.0,meteohub,2013-02-18 04:47:00,
2013-02-17 23:52:00,19.6,15.6,29.27,WNW,286,10.0,18.0,84,-99.99,,,-99.99,0.0,meteohub,2013-02-18 04:52:00,
2013-02-17 23:57:00,19.4,16.0,29.27,WSW,252,8.0,18.0,86,-99.99,,,-99.99,0.0,meteohub,2013-02-18 04:57:00,